sensor_id;sensor_type;location;lat;lon;timestamp;P1;durP1;ratioP1;P2;durP2;ratioP2
5939;SDS011;2995;-31.998;115.906;2023-09-19T00:01:27;2.93;;;1.00;;
5939;SDS011;2995;-31.998;115.906;2023-09-19T00:03:59;2.10;;;1.20;;
5939;SDS011;2995;-31.998;115.906;2023-09-19T00:06:30;5.03;;;1.00;;
5939;SDS011;2995;-31.998;115.906;2023-09-19T00:09:02;6.33;;;1.03;;
5939;SDS011;2995;-31.998;115.906;2023-09-19T00:11:38;2.70;;;1.00;;
5939;SDS011;2995;-31.998;115.906;2023-09-19T00:14:10;3.30;;;1.40;;
5939;SDS011;2995;-31.998;115.906;2023-09-19T00:16:42;5.23;;;1.40;;
5939;SDS011;2995;-31.998;115.906;2023-09-19T00:19:13;2.50;;;1.10;;
5939;SDS011;2995;-31.998;115.906;2023-09-19T00:21:44;3.47;;;1.40;;
5939;SDS011;2995;-31.998;115.906;2023-09-19T00:24:16;4.03;;;1.10;;
5939;SDS011;2995;-31.998;115.906;2023-09-19T00:26:50;5.80;;;1.17;;
5939;SDS011;2995;-31.998;115.906;2023-09-19T00:29:22;2.23;;;1.10;;
5939;SDS011;2995;-31.998;115.906;2023-09-19T00:31:55;4.30;;;1.27;;
5939;SDS011;2995;-31.998;115.906;2023-09-19T00:34:27;5.13;;;1.30;;
5939;SDS011;2995;-31.998;115.906;2023-09-19T00:37:00;6.53;;;1.10;;
5939;SDS011;2995;-31.998;115.906;2023-09-19T00:39:31;3.40;;;1.30;;
5939;SDS011;2995;-31.998;115.906;2023-09-19T00:42:05;6.63;;;1.57;;
5939;SDS011;2995;-31.998;115.906;2023-09-19T00:44:36;6.97;;;1.43;;
5939;SDS011;2995;-31.998;115.906;2023-09-19T00:47:07;5.63;;;1.43;;
5939;SDS011;2995;-31.998;115.906;2023-09-19T00:49:41;4.77;;;1.30;;
5939;SDS011;2995;-31.998;115.906;2023-09-19T00:52:15;4.80;;;1.13;;
5939;SDS011;2995;-31.998;115.906;2023-09-19T00:54:47;10.13;;;1.80;;
5939;SDS011;2995;-31.998;115.906;2023-09-19T00:57:20;2.87;;;1.10;;
5939;SDS011;2995;-31.998;115.906;2023-09-19T00:59:53;3.03;;;1.10;;
5939;SDS011;2995;-31.998;115.906;2023-09-19T01:02:26;6.33;;;1.23;;
5939;SDS011;2995;-31.998;115.906;2023-09-19T01:04:57;2.70;;;0.90;;
5939;SDS011;2995;-31.998;115.906;2023-09-19T01:07:30;5.60;;;1.30;;
5939;SDS011;2995;-31.998;115.906;2023-09-19T01:10:02;2.90;;;1.37;;
5939;SDS011;2995;-31.998;115.906;2023-09-19T01:12:40;8.17;;;2.17;;
5939;SDS011;2995;-31.998;115.906;2023-09-19T01:15:22;4.17;;;1.53;;
5939;SDS011;2995;-31.998;115.906;2023-09-19T01:18:09;5.87;;;1.20;;
5939;SDS011;2995;-31.998;115.906;2023-09-19T01:20:47;8.23;;;1.60;;
5939;SDS011;2995;-31.998;115.906;2023-09-19T01:23:27;3.90;;;1.40;;
5939;SDS011;2995;-31.998;115.906;2023-09-19T01:26:12;5.07;;;1.40;;
5939;SDS011;2995;-31.998;115.906;2023-09-19T01:29:07;6.30;;;1.63;;
5939;SDS011;2995;-31.998;115.906;2023-09-19T01:31:58;14.50;;;1.53;;
5939;SDS011;2995;-31.998;115.906;2023-09-19T01:34:43;7.67;;;1.30;;
5939;SDS011;2995;-31.998;115.906;2023-09-19T01:37:20;2.97;;;0.80;;
5939;SDS011;2995;-31.998;115.906;2023-09-19T01:39:53;3.27;;;1.10;;
5939;SDS011;2995;-31.998;115.906;2023-09-19T01:42:35;2.97;;;0.93;;
5939;SDS011;2995;-31.998;115.906;2023-09-19T01:45:12;2.30;;;1.10;;
5939;SDS011;2995;-31.998;115.906;2023-09-19T01:47:50;5.00;;;1.30;;
5939;SDS011;2995;-31.998;115.906;2023-09-19T01:50:27;2.37;;;1.03;;
5939;SDS011;2995;-31.998;115.906;2023-09-19T01:53:07;2.83;;;1.20;;
5939;SDS011;2995;-31.998;115.906;2023-09-19T01:55:46;3.90;;;1.00;;
5939;SDS011;2995;-31.998;115.906;2023-09-19T01:58:21;1.87;;;1.10;;
5939;SDS011;2995;-31.998;115.906;2023-09-19T02:00:59;13.83;;;1.80;;
5939;SDS011;2995;-31.998;115.906;2023-09-19T02:03:34;1.30;;;0.80;;
5939;SDS011;2995;-31.998;115.906;2023-09-19T02:06:07;2.00;;;0.90;;
5939;SDS011;2995;-31.998;115.906;2023-09-19T02:08:44;3.90;;;0.83;;
5939;SDS011;2995;-31.998;115.906;2023-09-19T02:11:16;5.17;;;1.10;;
5939;SDS011;2995;-31.998;115.906;2023-09-19T02:13:51;3.00;;;1.10;;
5939;SDS011;2995;-31.998;115.906;2023-09-19T02:16:23;2.60;;;0.90;;
5939;SDS011;2995;-31.998;115.906;2023-09-19T02:18:57;2.50;;;1.10;;
5939;SDS011;2995;-31.998;115.906;2023-09-19T02:21:31;2.27;;;0.80;;
5939;SDS011;2995;-31.998;115.906;2023-09-19T02:24:02;3.70;;;0.80;;
5939;SDS011;2995;-31.998;115.906;2023-09-19T02:26:36;2.40;;;0.93;;
5939;SDS011;2995;-31.998;115.906;2023-09-19T02:29:07;1.93;;;0.90;;
5939;SDS011;2995;-31.998;115.906;2023-09-19T02:31:40;1.53;;;0.80;;
5939;SDS011;2995;-31.998;115.906;2023-09-19T02:34:14;2.60;;;1.10;;
5939;SDS011;2995;-31.998;115.906;2023-09-19T02:36:46;2.23;;;0.90;;
5939;SDS011;2995;-31.998;115.906;2023-09-19T02:39:20;1.30;;;0.80;;
5939;SDS011;2995;-31.998;115.906;2023-09-19T02:41:52;4.57;;;1.33;;
5939;SDS011;2995;-31.998;115.906;2023-09-19T02:44:23;0.80;;;0.70;;
5939;SDS011;2995;-31.998;115.906;2023-09-19T02:46:54;1.83;;;1.00;;
5939;SDS011;2995;-31.998;115.906;2023-09-19T02:49:28;2.30;;;0.80;;
5939;SDS011;2995;-31.998;115.906;2023-09-19T02:51:59;4.17;;;1.30;;
5939;SDS011;2995;-31.998;115.906;2023-09-19T02:54:31;4.63;;;0.90;;
5939;SDS011;2995;-31.998;115.906;2023-09-19T02:57:03;3.73;;;1.07;;
5939;SDS011;2995;-31.998;115.906;2023-09-19T02:59:36;1.67;;;1.00;;
5939;SDS011;2995;-31.998;115.906;2023-09-19T03:02:08;16.37;;;1.60;;
5939;SDS011;2995;-31.998;115.906;2023-09-19T08:44:43;0.90;;;0.60;;
5939;SDS011;2995;-31.998;115.906;2023-09-19T08:47:15;1.43;;;0.70;;
5939;SDS011;2995;-31.998;115.906;2023-09-19T08:49:51;1.97;;;0.80;;
5939;SDS011;2995;-31.998;115.906;2023-09-19T08:52:32;1.43;;;0.63;;
5939;SDS011;2995;-31.998;115.906;2023-09-19T08:55:11;2.63;;;0.70;;
5939;SDS011;2995;-31.998;115.906;2023-09-19T08:57:49;1.63;;;0.80;;
5939;SDS011;2995;-31.998;115.906;2023-09-19T09:00:23;1.17;;;0.90;;
5939;SDS011;2995;-31.998;115.906;2023-09-19T09:02:56;1.87;;;0.90;;
5939;SDS011;2995;-31.998;115.906;2023-09-19T09:05:28;1.70;;;0.90;;
5939;SDS011;2995;-31.998;115.906;2023-09-19T09:08:00;6.10;;;0.97;;
5939;SDS011;2995;-31.998;115.906;2023-09-19T09:10:34;5.90;;;1.00;;
5939;SDS011;2995;-31.998;115.906;2023-09-19T09:13:06;3.37;;;0.80;;
5939;SDS011;2995;-31.998;115.906;2023-09-19T09:15:42;2.10;;;0.90;;
5939;SDS011;2995;-31.998;115.906;2023-09-19T09:18:14;3.20;;;0.77;;
5939;SDS011;2995;-31.998;115.906;2023-09-19T09:20:46;1.73;;;0.80;;
5939;SDS011;2995;-31.998;115.906;2023-09-19T09:23:18;3.40;;;0.93;;
5939;SDS011;2995;-31.998;115.906;2023-09-19T09:25:50;3.80;;;0.60;;
5939;SDS011;2995;-31.998;115.906;2023-09-19T09:28:23;2.10;;;0.90;;
5939;SDS011;2995;-31.998;115.906;2023-09-19T09:30:57;1.57;;;1.00;;
5939;SDS011;2995;-31.998;115.906;2023-09-19T09:33:29;1.40;;;0.90;;
5939;SDS011;2995;-31.998;115.906;2023-09-19T09:36:00;1.60;;;0.70;;
5939;SDS011;2995;-31.998;115.906;2023-09-19T09:38:43;1.00;;;0.80;;
5939;SDS011;2995;-31.998;115.906;2023-09-19T09:41:15;1.20;;;1.00;;
5939;SDS011;2995;-31.998;115.906;2023-09-19T09:43:53;2.10;;;0.80;;
5939;SDS011;2995;-31.998;115.906;2023-09-19T09:46:27;2.70;;;0.80;;
5939;SDS011;2995;-31.998;115.906;2023-09-19T09:49:14;2.73;;;0.90;;
5939;SDS011;2995;-31.998;115.906;2023-09-19T09:52:00;1.93;;;1.10;;
5939;SDS011;2995;-31.998;115.906;2023-09-19T09:54:34;2.40;;;0.80;;
5939;SDS011;2995;-31.998;115.906;2023-09-19T09:57:08;3.07;;;1.00;;
5939;SDS011;2995;-31.998;115.906;2023-09-19T09:59:50;1.20;;;1.00;;
5939;SDS011;2995;-31.998;115.906;2023-09-19T10:02:27;2.07;;;0.90;;
5939;SDS011;2995;-31.998;115.906;2023-09-19T10:05:10;1.57;;;1.27;;
5939;SDS011;2995;-31.998;115.906;2023-09-19T10:07:48;3.93;;;1.40;;
5939;SDS011;2995;-31.998;115.906;2023-09-19T10:10:32;4.47;;;2.20;;
5939;SDS011;2995;-31.998;115.906;2023-09-19T10:13:20;3.30;;;1.67;;
5939;SDS011;2995;-31.998;115.906;2023-09-19T10:15:54;2.40;;;1.10;;
5939;SDS011;2995;-31.998;115.906;2023-09-19T10:18:32;11.40;;;7.93;;
5939;SDS011;2995;-31.998;115.906;2023-09-19T10:21:07;2.53;;;1.70;;
5939;SDS011;2995;-31.998;115.906;2023-09-19T10:23:40;14.00;;;12.47;;
5939;SDS011;2995;-31.998;115.906;2023-09-19T10:26:11;39.43;;;29.30;;
5939;SDS011;2995;-31.998;115.906;2023-09-19T10:28:47;96.83;;;68.10;;
5939;SDS011;2995;-31.998;115.906;2023-09-19T10:31:21;157.43;;;89.97;;
5939;SDS011;2995;-31.998;115.906;2023-09-19T10:33:57;12.47;;;8.90;;
5939;SDS011;2995;-31.998;115.906;2023-09-19T10:36:32;10.47;;;6.13;;
5939;SDS011;2995;-31.998;115.906;2023-09-19T10:39:04;11.13;;;9.07;;
5939;SDS011;2995;-31.998;115.906;2023-09-19T10:41:38;14.30;;;12.00;;
5939;SDS011;2995;-31.998;115.906;2023-09-19T10:44:10;10.50;;;7.20;;
5939;SDS011;2995;-31.998;115.906;2023-09-19T10:46:44;7.13;;;5.97;;
5939;SDS011;2995;-31.998;115.906;2023-09-19T10:49:18;9.83;;;5.70;;
5939;SDS011;2995;-31.998;115.906;2023-09-19T10:51:52;4.23;;;2.70;;
5939;SDS011;2995;-31.998;115.906;2023-09-19T10:54:26;6.10;;;5.43;;
5939;SDS011;2995;-31.998;115.906;2023-09-19T10:57:00;5.70;;;3.40;;
5939;SDS011;2995;-31.998;115.906;2023-09-19T10:59:35;3.83;;;1.60;;
5939;SDS011;2995;-31.998;115.906;2023-09-19T11:02:16;15.90;;;7.07;;
5939;SDS011;2995;-31.998;115.906;2023-09-19T11:04:51;5.63;;;5.10;;
5939;SDS011;2995;-31.998;115.906;2023-09-19T11:07:23;16.60;;;14.90;;
5939;SDS011;2995;-31.998;115.906;2023-09-19T11:09:56;5.03;;;2.50;;
5939;SDS011;2995;-31.998;115.906;2023-09-19T11:18:52;3.83;;;1.60;;
5939;SDS011;2995;-31.998;115.906;2023-09-19T11:24:37;2.83;;;1.43;;
5939;SDS011;2995;-31.998;115.906;2023-09-19T11:27:14;1.60;;;1.20;;
5939;SDS011;2995;-31.998;115.906;2023-09-19T11:29:46;8.03;;;1.80;;
5939;SDS011;2995;-31.998;115.906;2023-09-19T11:36:00;3.47;;;2.53;;
5939;SDS011;2995;-31.998;115.906;2023-09-19T11:41:40;1.87;;;1.43;;
5939;SDS011;2995;-31.998;115.906;2023-09-19T11:44:32;4.67;;;3.43;;
5939;SDS011;2995;-31.998;115.906;2023-09-19T11:47:05;3.03;;;1.93;;
5939;SDS011;2995;-31.998;115.906;2023-09-19T11:49:38;2.90;;;1.40;;
5939;SDS011;2995;-31.998;115.906;2023-09-19T11:52:11;1.67;;;1.20;;
5939;SDS011;2995;-31.998;115.906;2023-09-19T11:54:54;2.10;;;1.10;;
5939;SDS011;2995;-31.998;115.906;2023-09-19T11:57:28;5.67;;;1.67;;
5939;SDS011;2995;-31.998;115.906;2023-09-19T12:00:02;2.17;;;1.20;;
5939;SDS011;2995;-31.998;115.906;2023-09-19T12:02:39;3.00;;;1.20;;
5939;SDS011;2995;-31.998;115.906;2023-09-19T12:05:13;1.93;;;1.30;;
5939;SDS011;2995;-31.998;115.906;2023-09-19T12:07:48;7.03;;;1.60;;
5939;SDS011;2995;-31.998;115.906;2023-09-19T12:10:19;1.50;;;1.10;;
5939;SDS011;2995;-31.998;115.906;2023-09-19T12:12:52;5.33;;;1.63;;
5939;SDS011;2995;-31.998;115.906;2023-09-19T12:15:26;3.50;;;1.27;;
5939;SDS011;2995;-31.998;115.906;2023-09-19T12:18:01;3.20;;;1.30;;
5939;SDS011;2995;-31.998;115.906;2023-09-19T12:20:43;2.60;;;1.50;;
5939;SDS011;2995;-31.998;115.906;2023-09-19T12:23:17;2.50;;;1.10;;
5939;SDS011;2995;-31.998;115.906;2023-09-19T12:25:48;4.67;;;1.47;;
5939;SDS011;2995;-31.998;115.906;2023-09-19T12:28:24;4.70;;;1.43;;
5939;SDS011;2995;-31.998;115.906;2023-09-19T12:30:57;4.40;;;1.20;;
5939;SDS011;2995;-31.998;115.906;2023-09-19T12:33:38;2.80;;;2.33;;
5939;SDS011;2995;-31.998;115.906;2023-09-19T12:36:19;2.27;;;1.63;;
5939;SDS011;2995;-31.998;115.906;2023-09-19T12:38:55;3.23;;;1.40;;
5939;SDS011;2995;-31.998;115.906;2023-09-19T12:41:27;1.80;;;1.20;;
5939;SDS011;2995;-31.998;115.906;2023-09-19T12:44:00;3.27;;;1.47;;
5939;SDS011;2995;-31.998;115.906;2023-09-19T12:46:35;3.73;;;1.30;;
5939;SDS011;2995;-31.998;115.906;2023-09-19T12:49:17;1.57;;;1.20;;
5939;SDS011;2995;-31.998;115.906;2023-09-19T12:51:49;3.27;;;1.87;;
5939;SDS011;2995;-31.998;115.906;2023-09-19T12:54:26;3.50;;;1.73;;
5939;SDS011;2995;-31.998;115.906;2023-09-19T12:57:09;2.67;;;1.37;;
5939;SDS011;2995;-31.998;115.906;2023-09-19T12:59:55;2.50;;;1.63;;
5939;SDS011;2995;-31.998;115.906;2023-09-19T13:02:27;1.90;;;1.37;;
5939;SDS011;2995;-31.998;115.906;2023-09-19T13:04:58;7.07;;;1.40;;
5939;SDS011;2995;-31.998;115.906;2023-09-19T13:07:45;3.03;;;1.47;;
5939;SDS011;2995;-31.998;115.906;2023-09-19T13:10:17;2.10;;;1.20;;
5939;SDS011;2995;-31.998;115.906;2023-09-19T13:12:50;3.10;;;1.50;;
5939;SDS011;2995;-31.998;115.906;2023-09-19T13:15:24;3.43;;;1.67;;
5939;SDS011;2995;-31.998;115.906;2023-09-19T13:17:56;3.47;;;1.60;;
5939;SDS011;2995;-31.998;115.906;2023-09-19T13:20:28;1.70;;;1.40;;
5939;SDS011;2995;-31.998;115.906;2023-09-19T13:23:05;4.60;;;1.60;;
5939;SDS011;2995;-31.998;115.906;2023-09-19T13:25:57;2.50;;;1.60;;
5939;SDS011;2995;-31.998;115.906;2023-09-19T13:28:28;4.23;;;1.40;;
5939;SDS011;2995;-31.998;115.906;2023-09-19T13:31:01;2.27;;;1.70;;
5939;SDS011;2995;-31.998;115.906;2023-09-19T13:33:33;2.73;;;1.60;;
5939;SDS011;2995;-31.998;115.906;2023-09-19T13:36:11;4.17;;;1.90;;
5939;SDS011;2995;-31.998;115.906;2023-09-19T13:38:43;2.53;;;2.03;;
5939;SDS011;2995;-31.998;115.906;2023-09-19T13:41:15;3.60;;;2.00;;
5939;SDS011;2995;-31.998;115.906;2023-09-19T13:43:47;3.80;;;1.40;;
5939;SDS011;2995;-31.998;115.906;2023-09-19T13:46:20;2.60;;;1.43;;
5939;SDS011;2995;-31.998;115.906;2023-09-19T13:48:53;4.10;;;1.57;;
5939;SDS011;2995;-31.998;115.906;2023-09-19T13:51:26;3.47;;;1.60;;
5939;SDS011;2995;-31.998;115.906;2023-09-19T13:53:58;3.97;;;1.60;;
5939;SDS011;2995;-31.998;115.906;2023-09-19T13:56:29;2.53;;;1.50;;
5939;SDS011;2995;-31.998;115.906;2023-09-19T13:59:00;3.90;;;1.23;;
5939;SDS011;2995;-31.998;115.906;2023-09-19T14:01:34;2.10;;;1.40;;
5939;SDS011;2995;-31.998;115.906;2023-09-19T14:04:06;3.43;;;1.50;;
5939;SDS011;2995;-31.998;115.906;2023-09-19T14:06:38;1.90;;;1.40;;
5939;SDS011;2995;-31.998;115.906;2023-09-19T14:09:12;4.33;;;1.67;;
5939;SDS011;2995;-31.998;115.906;2023-09-19T14:11:45;2.23;;;1.50;;
5939;SDS011;2995;-31.998;115.906;2023-09-19T14:14:18;3.20;;;1.70;;
5939;SDS011;2995;-31.998;115.906;2023-09-19T14:16:52;2.03;;;1.73;;
5939;SDS011;2995;-31.998;115.906;2023-09-19T14:19:23;2.60;;;1.40;;
5939;SDS011;2995;-31.998;115.906;2023-09-19T14:21:54;2.07;;;1.50;;
5939;SDS011;2995;-31.998;115.906;2023-09-19T14:24:26;2.17;;;1.73;;
5939;SDS011;2995;-31.998;115.906;2023-09-19T14:26:58;2.13;;;1.60;;
5939;SDS011;2995;-31.998;115.906;2023-09-19T14:29:30;3.60;;;1.77;;
5939;SDS011;2995;-31.998;115.906;2023-09-19T14:32:03;1.80;;;1.27;;
5939;SDS011;2995;-31.998;115.906;2023-09-19T14:34:35;2.50;;;1.47;;
5939;SDS011;2995;-31.998;115.906;2023-09-19T14:37:09;4.43;;;1.40;;
5939;SDS011;2995;-31.998;115.906;2023-09-19T14:39:40;3.43;;;1.37;;
5939;SDS011;2995;-31.998;115.906;2023-09-19T14:42:11;2.60;;;1.50;;
5939;SDS011;2995;-31.998;115.906;2023-09-19T14:44:44;2.17;;;1.60;;
5939;SDS011;2995;-31.998;115.906;2023-09-19T14:47:18;4.20;;;1.73;;
5939;SDS011;2995;-31.998;115.906;2023-09-19T14:49:49;1.83;;;1.60;;
5939;SDS011;2995;-31.998;115.906;2023-09-19T14:52:21;3.23;;;1.33;;
5939;SDS011;2995;-31.998;115.906;2023-09-19T14:54:54;3.17;;;1.30;;
5939;SDS011;2995;-31.998;115.906;2023-09-19T14:57:25;2.70;;;1.17;;
5939;SDS011;2995;-31.998;115.906;2023-09-19T14:59:57;2.80;;;1.37;;
5939;SDS011;2995;-31.998;115.906;2023-09-19T15:02:33;2.37;;;1.57;;
5939;SDS011;2995;-31.998;115.906;2023-09-19T15:05:05;2.50;;;1.37;;
5939;SDS011;2995;-31.998;115.906;2023-09-19T15:07:37;5.17;;;3.43;;
5939;SDS011;2995;-31.998;115.906;2023-09-19T15:10:08;2.67;;;1.80;;
5939;SDS011;2995;-31.998;115.906;2023-09-19T15:12:40;5.17;;;2.13;;
5939;SDS011;2995;-31.998;115.906;2023-09-19T15:15:11;4.30;;;1.80;;
5939;SDS011;2995;-31.998;115.906;2023-09-19T15:17:45;4.00;;;1.70;;
5939;SDS011;2995;-31.998;115.906;2023-09-19T15:20:16;2.33;;;1.60;;
5939;SDS011;2995;-31.998;115.906;2023-09-19T15:22:49;2.50;;;1.40;;
5939;SDS011;2995;-31.998;115.906;2023-09-19T15:25:20;3.37;;;1.80;;
5939;SDS011;2995;-31.998;115.906;2023-09-19T15:27:51;1.80;;;1.40;;
5939;SDS011;2995;-31.998;115.906;2023-09-19T15:30:24;1.50;;;1.20;;
5939;SDS011;2995;-31.998;115.906;2023-09-19T15:32:57;2.37;;;1.50;;
5939;SDS011;2995;-31.998;115.906;2023-09-19T15:35:28;2.40;;;1.70;;
5939;SDS011;2995;-31.998;115.906;2023-09-19T15:37:59;1.80;;;1.20;;
5939;SDS011;2995;-31.998;115.906;2023-09-19T15:40:31;1.60;;;1.10;;
5939;SDS011;2995;-31.998;115.906;2023-09-19T15:43:02;2.73;;;1.37;;
5939;SDS011;2995;-31.998;115.906;2023-09-19T15:45:33;3.20;;;1.40;;
5939;SDS011;2995;-31.998;115.906;2023-09-19T15:48:07;1.90;;;1.20;;
5939;SDS011;2995;-31.998;115.906;2023-09-19T15:50:38;1.60;;;1.40;;
5939;SDS011;2995;-31.998;115.906;2023-09-19T15:53:10;1.73;;;1.20;;
5939;SDS011;2995;-31.998;115.906;2023-09-19T15:55:43;1.33;;;0.90;;
5939;SDS011;2995;-31.998;115.906;2023-09-19T15:58:14;2.40;;;1.70;;
5939;SDS011;2995;-31.998;115.906;2023-09-19T16:00:46;3.80;;;1.37;;
5939;SDS011;2995;-31.998;115.906;2023-09-19T16:03:19;3.80;;;1.40;;
5939;SDS011;2995;-31.998;115.906;2023-09-19T16:05:52;2.57;;;1.03;;
5939;SDS011;2995;-31.998;115.906;2023-09-19T16:08:23;2.43;;;1.40;;
5939;SDS011;2995;-31.998;115.906;2023-09-19T16:10:54;2.80;;;1.30;;
5939;SDS011;2995;-31.998;115.906;2023-09-19T16:13:25;1.47;;;1.30;;
5939;SDS011;2995;-31.998;115.906;2023-09-19T16:15:57;4.30;;;1.40;;
5939;SDS011;2995;-31.998;115.906;2023-09-19T16:18:31;2.00;;;1.10;;
5939;SDS011;2995;-31.998;115.906;2023-09-19T16:21:03;3.73;;;1.43;;
5939;SDS011;2995;-31.998;115.906;2023-09-19T16:23:34;6.37;;;1.40;;
5939;SDS011;2995;-31.998;115.906;2023-09-19T16:26:06;1.80;;;1.20;;
5939;SDS011;2995;-31.998;115.906;2023-09-19T16:28:39;2.20;;;1.03;;
5939;SDS011;2995;-31.998;115.906;2023-09-19T16:31:10;1.90;;;1.20;;
5939;SDS011;2995;-31.998;115.906;2023-09-19T16:33:44;4.20;;;1.50;;
5939;SDS011;2995;-31.998;115.906;2023-09-19T16:36:17;3.47;;;1.20;;
5939;SDS011;2995;-31.998;115.906;2023-09-19T16:38:49;1.80;;;1.40;;
5939;SDS011;2995;-31.998;115.906;2023-09-19T16:41:20;5.33;;;1.50;;
5939;SDS011;2995;-31.998;115.906;2023-09-19T16:43:52;1.97;;;1.57;;
5939;SDS011;2995;-31.998;115.906;2023-09-19T16:46:24;1.93;;;1.50;;
5939;SDS011;2995;-31.998;115.906;2023-09-19T16:48:57;4.70;;;2.43;;
5939;SDS011;2995;-31.998;115.906;2023-09-19T16:51:30;2.10;;;1.60;;
5939;SDS011;2995;-31.998;115.906;2023-09-19T16:54:01;2.60;;;1.80;;
5939;SDS011;2995;-31.998;115.906;2023-09-19T16:56:32;2.97;;;2.10;;
5939;SDS011;2995;-31.998;115.906;2023-09-19T16:59:05;5.37;;;2.63;;
5939;SDS011;2995;-31.998;115.906;2023-09-19T17:01:36;8.63;;;2.80;;
5939;SDS011;2995;-31.998;115.906;2023-09-19T17:04:09;4.93;;;2.63;;
5939;SDS011;2995;-31.998;115.906;2023-09-19T17:06:41;3.40;;;2.00;;
5939;SDS011;2995;-31.998;115.906;2023-09-19T17:09:12;2.63;;;1.93;;
5939;SDS011;2995;-31.998;115.906;2023-09-19T17:11:44;2.50;;;2.13;;
5939;SDS011;2995;-31.998;115.906;2023-09-19T17:14:16;3.80;;;2.10;;
5939;SDS011;2995;-31.998;115.906;2023-09-19T17:16:47;3.17;;;1.77;;
5939;SDS011;2995;-31.998;115.906;2023-09-19T17:19:21;6.27;;;2.10;;
5939;SDS011;2995;-31.998;115.906;2023-09-19T17:21:52;5.67;;;2.97;;
5939;SDS011;2995;-31.998;115.906;2023-09-19T17:24:23;6.07;;;3.00;;
5939;SDS011;2995;-31.998;115.906;2023-09-19T17:26:56;3.40;;;1.90;;
5939;SDS011;2995;-31.998;115.906;2023-09-19T17:29:27;8.27;;;2.90;;
5939;SDS011;2995;-31.998;115.906;2023-09-19T17:31:59;3.17;;;2.27;;
5939;SDS011;2995;-31.998;115.906;2023-09-19T17:34:35;2.30;;;2.10;;
5939;SDS011;2995;-31.998;115.906;2023-09-19T17:37:06;2.97;;;1.40;;
5939;SDS011;2995;-31.998;115.906;2023-09-19T17:39:37;2.90;;;1.93;;
5939;SDS011;2995;-31.998;115.906;2023-09-19T17:42:09;3.40;;;2.77;;
5939;SDS011;2995;-31.998;115.906;2023-09-19T17:44:40;5.00;;;2.40;;
5939;SDS011;2995;-31.998;115.906;2023-09-19T17:47:11;6.50;;;2.20;;
5939;SDS011;2995;-31.998;115.906;2023-09-19T17:49:47;4.27;;;1.70;;
5939;SDS011;2995;-31.998;115.906;2023-09-19T17:52:18;2.33;;;1.50;;
5939;SDS011;2995;-31.998;115.906;2023-09-19T17:54:50;8.43;;;1.83;;
5939;SDS011;2995;-31.998;115.906;2023-09-19T17:57:21;2.03;;;1.53;;
5939;SDS011;2995;-31.998;115.906;2023-09-19T17:59:52;4.37;;;2.00;;
5939;SDS011;2995;-31.998;115.906;2023-09-19T18:02:23;1.93;;;1.63;;
5939;SDS011;2995;-31.998;115.906;2023-09-19T18:04:56;3.73;;;2.30;;
5939;SDS011;2995;-31.998;115.906;2023-09-19T18:07:28;3.50;;;2.43;;
5939;SDS011;2995;-31.998;115.906;2023-09-19T18:09:59;2.50;;;2.10;;
5939;SDS011;2995;-31.998;115.906;2023-09-19T18:12:34;4.17;;;2.00;;
5939;SDS011;2995;-31.998;115.906;2023-09-19T18:15:05;2.40;;;2.20;;
5939;SDS011;2995;-31.998;115.906;2023-09-19T18:17:38;5.13;;;1.93;;
5939;SDS011;2995;-31.998;115.906;2023-09-19T18:20:12;3.63;;;2.40;;
5939;SDS011;2995;-31.998;115.906;2023-09-19T18:22:45;4.07;;;2.33;;
5939;SDS011;2995;-31.998;115.906;2023-09-19T18:25:17;2.60;;;2.00;;
5939;SDS011;2995;-31.998;115.906;2023-09-19T18:27:49;4.23;;;2.00;;
5939;SDS011;2995;-31.998;115.906;2023-09-19T18:30:20;2.63;;;1.87;;
5939;SDS011;2995;-31.998;115.906;2023-09-19T18:32:52;3.47;;;1.50;;
5939;SDS011;2995;-31.998;115.906;2023-09-19T18:35:25;3.93;;;1.27;;
5939;SDS011;2995;-31.998;115.906;2023-09-19T18:37:57;2.13;;;1.57;;
5939;SDS011;2995;-31.998;115.906;2023-09-19T18:40:28;2.43;;;1.47;;
5939;SDS011;2995;-31.998;115.906;2023-09-19T18:43:00;1.83;;;1.43;;
5939;SDS011;2995;-31.998;115.906;2023-09-19T18:45:31;3.80;;;1.30;;
5939;SDS011;2995;-31.998;115.906;2023-09-19T18:48:03;2.30;;;1.50;;
5939;SDS011;2995;-31.998;115.906;2023-09-19T18:50:37;2.77;;;1.50;;
5939;SDS011;2995;-31.998;115.906;2023-09-19T18:53:09;1.90;;;1.70;;
5939;SDS011;2995;-31.998;115.906;2023-09-19T18:55:40;2.13;;;1.20;;
5939;SDS011;2995;-31.998;115.906;2023-09-19T18:58:11;2.10;;;1.43;;
5939;SDS011;2995;-31.998;115.906;2023-09-19T19:00:43;1.57;;;1.23;;
5939;SDS011;2995;-31.998;115.906;2023-09-19T19:03:17;2.07;;;1.47;;
5939;SDS011;2995;-31.998;115.906;2023-09-19T19:05:50;2.20;;;1.30;;
5939;SDS011;2995;-31.998;115.906;2023-09-19T19:08:21;2.30;;;1.47;;
5939;SDS011;2995;-31.998;115.906;2023-09-19T19:10:52;3.00;;;1.90;;
5939;SDS011;2995;-31.998;115.906;2023-09-19T19:13:24;3.10;;;1.43;;
5939;SDS011;2995;-31.998;115.906;2023-09-19T19:15:57;4.20;;;1.37;;
5939;SDS011;2995;-31.998;115.906;2023-09-19T19:18:28;4.60;;;1.47;;
5939;SDS011;2995;-31.998;115.906;2023-09-19T19:21:01;2.10;;;1.30;;
5939;SDS011;2995;-31.998;115.906;2023-09-19T19:23:34;3.30;;;1.90;;
5939;SDS011;2995;-31.998;115.906;2023-09-19T19:26:07;1.70;;;1.60;;
5939;SDS011;2995;-31.998;115.906;2023-09-19T19:28:40;2.00;;;1.63;;
5939;SDS011;2995;-31.998;115.906;2023-09-19T19:31:12;1.50;;;1.30;;
5939;SDS011;2995;-31.998;115.906;2023-09-19T19:33:43;1.80;;;1.40;;
5939;SDS011;2995;-31.998;115.906;2023-09-19T19:36:17;3.10;;;1.50;;
5939;SDS011;2995;-31.998;115.906;2023-09-19T19:38:49;1.40;;;1.30;;
5939;SDS011;2995;-31.998;115.906;2023-09-19T19:41:21;3.90;;;1.40;;
5939;SDS011;2995;-31.998;115.906;2023-09-19T19:43:53;2.40;;;1.33;;
5939;SDS011;2995;-31.998;115.906;2023-09-19T19:46:24;2.47;;;1.53;;
5939;SDS011;2995;-31.998;115.906;2023-09-19T19:48:55;2.63;;;1.43;;
5939;SDS011;2995;-31.998;115.906;2023-09-19T19:51:29;3.73;;;1.47;;
5939;SDS011;2995;-31.998;115.906;2023-09-19T19:54:01;1.63;;;1.30;;
5939;SDS011;2995;-31.998;115.906;2023-09-19T19:56:34;1.60;;;1.10;;
5939;SDS011;2995;-31.998;115.906;2023-09-19T19:59:07;2.90;;;1.50;;
5939;SDS011;2995;-31.998;115.906;2023-09-19T20:01:39;1.57;;;1.20;;
5939;SDS011;2995;-31.998;115.906;2023-09-19T20:04:10;3.77;;;1.33;;
5939;SDS011;2995;-31.998;115.906;2023-09-19T20:06:43;3.23;;;1.40;;
5939;SDS011;2995;-31.998;115.906;2023-09-19T20:09:15;2.57;;;1.23;;
5939;SDS011;2995;-31.998;115.906;2023-09-19T20:11:47;3.27;;;1.20;;
5939;SDS011;2995;-31.998;115.906;2023-09-19T20:14:19;1.20;;;1.00;;
5939;SDS011;2995;-31.998;115.906;2023-09-19T20:16:50;2.63;;;1.20;;
5939;SDS011;2995;-31.998;115.906;2023-09-19T20:19:22;3.83;;;1.30;;
5939;SDS011;2995;-31.998;115.906;2023-09-19T20:22:00;2.03;;;1.20;;
5939;SDS011;2995;-31.998;115.906;2023-09-19T20:24:35;2.20;;;1.20;;
5939;SDS011;2995;-31.998;115.906;2023-09-19T20:27:06;3.40;;;1.40;;
5939;SDS011;2995;-31.998;115.906;2023-09-19T20:29:39;4.00;;;1.50;;
5939;SDS011;2995;-31.998;115.906;2023-09-19T20:32:11;7.03;;;1.13;;
5939;SDS011;2995;-31.998;115.906;2023-09-19T20:34:44;2.23;;;1.10;;
5939;SDS011;2995;-31.998;115.906;2023-09-19T20:37:17;3.30;;;1.20;;
5939;SDS011;2995;-31.998;115.906;2023-09-19T20:39:48;1.33;;;0.87;;
5939;SDS011;2995;-31.998;115.906;2023-09-19T20:42:20;2.60;;;1.10;;
5939;SDS011;2995;-31.998;115.906;2023-09-19T20:44:51;2.10;;;1.03;;
5939;SDS011;2995;-31.998;115.906;2023-09-19T20:47:23;2.10;;;1.13;;
5939;SDS011;2995;-31.998;115.906;2023-09-19T20:49:54;1.40;;;1.20;;
5939;SDS011;2995;-31.998;115.906;2023-09-19T20:52:28;1.87;;;1.03;;
5939;SDS011;2995;-31.998;115.906;2023-09-19T20:54:59;2.70;;;1.30;;
5939;SDS011;2995;-31.998;115.906;2023-09-19T20:57:30;1.80;;;1.13;;
5939;SDS011;2995;-31.998;115.906;2023-09-19T21:00:01;1.30;;;1.20;;
5939;SDS011;2995;-31.998;115.906;2023-09-19T21:02:35;2.80;;;1.33;;
5939;SDS011;2995;-31.998;115.906;2023-09-19T21:05:06;1.60;;;0.90;;
5939;SDS011;2995;-31.998;115.906;2023-09-19T21:07:40;2.20;;;1.27;;